createdAt,value
2018-09-06T00:01:44.897Z,80.13
2018-09-06T00:04:13.607Z,80.29
2018-09-06T00:06:42.406Z,80.44
2018-09-06T00:09:11.211Z,80.26
2018-09-06T00:11:39.954Z,80.37
2018-09-06T00:14:08.806Z,80.48
2018-09-06T00:16:37.464Z,80.45
2018-09-06T00:19:06.657Z,80.61
2018-09-06T00:21:35.458Z,80.74
2018-09-06T00:24:04.203Z,80.78
2018-09-06T00:26:32.859Z,80.98
2018-09-06T00:29:01.555Z,81.00
2018-09-06T00:31:30.685Z,81.22
2018-09-06T00:33:59.547Z,81.23
2018-09-06T00:36:28.190Z,81.83
2018-09-06T00:38:57.186Z,81.71
2018-09-06T00:41:25.835Z,81.61
2018-09-06T00:43:54.509Z,81.87
2018-09-06T00:46:23.220Z,82.05
2018-09-06T00:48:52.025Z,81.91
2018-09-06T00:51:21.125Z,82.12
2018-09-06T00:53:49.966Z,82.15
2018-09-06T00:56:18.650Z,82.40
2018-09-06T00:58:47.413Z,82.56
2018-09-06T01:01:16.073Z,82.53
2018-09-06T01:03:44.839Z,82.36
2018-09-06T01:06:13.486Z,82.12
2018-09-06T01:08:42.229Z,82.07
2018-09-06T01:11:11.085Z,81.85
2018-09-06T01:13:39.765Z,81.98
2018-09-06T01:16:09.341Z,81.69
2018-09-06T01:18:38.181Z,81.77
2018-09-06T01:21:07.465Z,81.72
2018-09-06T01:23:36.210Z,81.77
2018-09-06T01:26:04.937Z,81.58
2018-09-06T01:28:33.641Z,81.55
2018-09-06T01:31:02.418Z,81.58
2018-09-06T01:33:31.194Z,81.47
2018-09-06T01:36:04.989Z,81.52
2018-09-06T01:38:33.736Z,81.83
2018-09-06T01:41:02.482Z,82.44
2018-09-06T01:43:31.152Z,82.57
2018-09-06T01:46:00.034Z,82.72
2018-09-06T01:48:28.786Z,82.86
2018-09-06T01:50:57.901Z,83.02
2018-09-06T01:53:26.629Z,82.92
2018-09-06T01:55:55.269Z,82.81
2018-09-06T01:58:23.945Z,83.11
2018-09-06T02:00:52.590Z,83.23
2018-09-06T02:03:21.620Z,83.08
2018-09-06T02:05:50.294Z,82.81
2018-09-06T02:08:19.019Z,82.84
2018-09-06T02:10:47.769Z,83.19
2018-09-06T02:13:16.540Z,83.25
2018-09-06T02:15:45.305Z,83.23
2018-09-06T02:18:14.101Z,83.50
2018-09-06T02:20:42.754Z,83.44
2018-09-06T02:23:11.444Z,83.47
2018-09-06T02:25:40.235Z,83.72
2018-09-06T02:28:09.422Z,83.79
2018-09-06T02:30:38.260Z,83.35
2018-09-06T02:33:06.989Z,83.70
2018-09-06T02:35:35.810Z,83.33
2018-09-06T02:38:04.481Z,83.44
2018-09-06T02:40:40.109Z,83.20
2018-09-06T02:43:11.250Z,83.62
2018-09-06T02:45:40.972Z,83.50
2018-09-06T02:48:09.712Z,83.32
2018-09-06T02:50:43.861Z,83.38
2018-09-06T02:53:12.894Z,83.60
2018-09-06T02:55:41.997Z,83.47
2018-09-06T02:58:10.738Z,83.52
2018-09-06T03:00:39.897Z,83.87
2018-09-06T03:03:08.833Z,83.96
2018-09-06T03:05:37.552Z,83.92
2018-09-06T03:08:06.271Z,84.25
2018-09-06T03:10:43.070Z,84.53
2018-09-06T03:13:11.853Z,83.91
2018-09-06T03:15:41.224Z,84.32
2018-09-06T03:18:10.204Z,84.03
2018-09-06T03:20:39.051Z,84.20
2018-09-06T03:23:07.785Z,84.32
2018-09-06T03:25:36.499Z,83.79
2018-09-06T03:28:06.119Z,83.85
2018-09-06T03:30:35.043Z,84.30
2018-09-06T03:33:04.112Z,84.11
2018-09-06T03:35:32.805Z,83.97
2018-09-06T03:38:01.708Z,84.03
2018-09-06T03:40:30.700Z,84.07
2018-09-06T03:42:59.365Z,84.41
2018-09-06T03:45:28.106Z,84.47
2018-09-06T03:47:56.869Z,84.42
2018-09-06T03:50:25.563Z,84.46
2018-09-06T03:52:54.358Z,84.15
2018-09-06T03:55:23.765Z,84.18
2018-09-06T03:57:52.579Z,84.55
2018-09-06T04:00:21.463Z,84.75
2018-09-06T04:02:50.269Z,84.98
2018-09-06T04:05:19.330Z,84.50
2018-09-06T04:07:48.066Z,84.79
2018-09-06T04:10:16.803Z,84.92
2018-09-06T04:12:45.789Z,85.25
2018-09-06T04:15:14.579Z,84.98
2018-09-06T04:17:43.470Z,85.23
2018-09-06T04:20:12.126Z,85.03
2018-09-06T04:22:45.567Z,85.28
2018-09-06T04:25:14.433Z,85.10
2018-09-06T04:27:43.275Z,85.25
2018-09-06T04:30:12.212Z,85.23
2018-09-06T04:32:40.945Z,85.31
2018-09-06T04:35:10.009Z,85.01
2018-09-06T04:37:38.754Z,85.04
2018-09-06T04:40:07.861Z,85.09
2018-09-06T04:42:36.770Z,85.18
2018-09-06T04:45:05.960Z,84.95
2018-09-06T04:47:34.662Z,84.67
2018-09-06T04:50:03.434Z,84.61
2018-09-06T04:52:32.182Z,84.72
2018-09-06T04:55:00.918Z,84.65
2018-09-06T04:57:29.562Z,84.86
2018-09-06T04:59:58.301Z,85.02
2018-09-06T05:02:26.926Z,84.63
2018-09-06T05:04:55.679Z,84.37
2018-09-06T05:07:24.562Z,84.59
2018-09-06T05:09:53.260Z,84.40
2018-09-06T05:12:22.018Z,84.36
2018-09-06T05:14:50.846Z,84.59
2018-09-06T05:17:19.495Z,84.11
2018-09-06T05:19:48.229Z,84.03
2018-09-06T05:22:16.924Z,83.75
2018-09-06T05:24:45.881Z,83.52
2018-09-06T05:27:14.729Z,83.02
2018-09-06T05:29:43.421Z,83.01
2018-09-06T05:32:12.449Z,82.74
2018-09-06T05:34:41.281Z,82.51
2018-09-06T05:37:10.059Z,81.67
2018-09-06T05:39:38.842Z,81.57
2018-09-06T05:42:07.501Z,81.98
2018-09-06T05:44:36.431Z,82.17
2018-09-06T05:47:05.188Z,82.51
2018-09-06T05:49:34.014Z,82.64
2018-09-06T05:52:02.834Z,82.38
2018-09-06T05:54:31.746Z,82.48
2018-09-06T05:57:00.968Z,82.72
2018-09-06T05:59:29.640Z,82.36
2018-09-06T06:01:58.329Z,82.08
2018-09-06T06:04:27.013Z,82.05
2018-09-06T06:06:55.814Z,82.02
2018-09-06T06:09:24.614Z,81.09
2018-09-06T06:11:53.747Z,81.21
2018-09-06T06:14:22.587Z,81.45
2018-09-06T06:16:52.380Z,80.93
2018-09-06T06:19:21.155Z,80.57
2018-09-06T06:21:50.085Z,80.03
2018-09-06T06:24:18.790Z,79.71
2018-09-06T06:26:47.847Z,79.70
2018-09-06T06:29:16.622Z,79.80
2018-09-06T06:31:45.690Z,80.01
2018-09-06T06:34:14.515Z,80.09
2018-09-06T06:36:43.385Z,79.87
2018-09-06T06:39:13.654Z,79.48
2018-09-06T06:41:42.428Z,79.24
2018-09-06T06:44:11.729Z,79.18
2018-09-06T06:46:40.473Z,79.00
2018-09-06T06:49:09.136Z,78.86
2018-09-06T06:51:37.760Z,78.91
2018-09-06T06:54:06.741Z,78.95
2018-09-06T06:56:35.639Z,79.28
2018-09-06T06:59:04.722Z,78.54
2018-09-06T07:01:33.442Z,77.50
2018-09-06T07:04:02.415Z,77.20
2018-09-06T07:06:31.149Z,77.64
2018-09-06T07:09:00.007Z,77.68
2018-09-06T07:11:28.929Z,77.54
2018-09-06T07:13:57.805Z,78.03
2018-09-06T07:16:26.509Z,77.39
2018-09-06T07:18:55.506Z,77.12
2018-09-06T07:21:24.305Z,77.73
2018-09-06T07:23:53.191Z,77.43
2018-09-06T07:26:21.938Z,77.06
2018-09-06T07:28:50.714Z,75.93
2018-09-06T07:31:19.640Z,74.26
2018-09-06T07:33:48.424Z,73.03
2018-09-06T07:36:17.125Z,73.69
2018-09-06T07:38:45.825Z,73.61
2018-09-06T07:41:14.499Z,74.08
2018-09-06T07:43:43.175Z,73.22
2018-09-06T07:46:11.875Z,73.71
2018-09-06T07:48:41.065Z,72.19
2018-09-06T07:51:09.817Z,70.75
2018-09-06T07:53:38.755Z,72.04
2018-09-06T07:56:07.937Z,71.03
2018-09-06T07:58:36.742Z,70.05
2018-09-06T08:01:05.690Z,70.85
2018-09-06T08:03:34.445Z,68.90
2018-09-06T08:06:03.401Z,68.54
2018-09-06T08:08:32.324Z,69.89
2018-09-06T08:11:01.064Z,68.98
2018-09-06T08:13:30.613Z,68.73
2018-09-06T08:15:59.355Z,68.09
2018-09-06T08:18:28.045Z,68.42
2018-09-06T08:20:56.773Z,69.02
2018-09-06T08:23:25.570Z,68.84
2018-09-06T08:25:54.546Z,67.11
2018-09-06T08:28:23.273Z,68.17
2018-09-06T08:30:52.079Z,68.13
2018-09-06T08:33:20.856Z,67.37
2018-09-06T08:35:49.573Z,67.77
2018-09-06T08:38:18.393Z,66.87
2018-09-06T08:40:47.137Z,67.03
2018-09-06T08:43:15.897Z,66.40
2018-09-06T08:45:44.744Z,65.93
2018-09-06T08:48:13.643Z,64.90
2018-09-06T08:50:42.537Z,64.85
2018-09-06T08:53:11.268Z,65.85
2018-09-06T08:55:39.999Z,63.71
2018-09-06T08:58:08.831Z,63.94
2018-09-06T09:00:40.937Z,63.29
2018-09-06T09:03:10.999Z,59.76
2018-09-06T09:05:39.742Z,60.17
2018-09-06T09:08:08.438Z,60.11
2018-09-06T09:10:37.242Z,60.04
2018-09-06T09:13:06.292Z,59.68
2018-09-06T09:15:35.051Z,59.98
2018-09-06T09:18:03.784Z,60.17
2018-09-06T09:20:32.685Z,59.82
2018-09-06T09:23:01.606Z,58.72
2018-09-06T09:25:30.409Z,59.39
2018-09-06T09:27:59.278Z,58.04
2018-09-06T09:30:28.192Z,57.77
2018-09-06T09:32:57.275Z,56.43
2018-09-06T09:35:26.095Z,55.75
2018-09-06T09:37:54.886Z,54.79
2018-09-06T09:40:23.633Z,55.38
2018-09-06T09:42:52.330Z,56.21
2018-09-06T09:45:21.220Z,55.38
2018-09-06T09:47:49.999Z,56.12
2018-09-06T09:52:46.785Z,54.52
2018-09-06T09:55:15.465Z,53.89
2018-09-06T09:57:44.314Z,54.57
2018-09-06T10:00:13.050Z,54.09
2018-09-06T10:02:46.933Z,53.71
2018-09-06T10:05:20.782Z,53.13
2018-09-06T10:07:57.926Z,51.45
2018-09-06T10:10:27.421Z,51.84
2018-09-06T10:12:56.221Z,51.80
2018-09-06T10:15:25.002Z,50.97
2018-09-06T10:18:00.598Z,50.68
2018-09-06T10:20:29.729Z,51.26
2018-09-06T10:22:58.500Z,49.52
2018-09-06T10:25:27.395Z,51.46
2018-09-06T10:27:56.202Z,49.19
2018-09-06T10:30:25.129Z,47.85
2018-09-06T10:32:53.957Z,48.22
2018-09-06T10:35:22.812Z,48.17
2018-09-06T10:37:51.495Z,48.30
2018-09-06T10:40:20.210Z,48.37
2018-09-06T10:42:49.006Z,46.94
2018-09-06T10:45:17.736Z,47.31
2018-09-06T10:47:46.514Z,47.60
2018-09-06T10:50:15.318Z,47.36
2018-09-06T10:52:44.250Z,47.94
2018-09-06T10:55:13.110Z,47.67
2018-09-06T10:57:41.814Z,46.94
2018-09-06T11:00:10.663Z,47.17
2018-09-06T11:02:39.506Z,46.93
2018-09-06T11:05:08.378Z,46.59
2018-09-06T11:07:37.107Z,45.81
2018-09-06T11:10:06.019Z,45.86
2018-09-06T11:12:35.000Z,45.09
2018-09-06T11:15:03.727Z,45.46
2018-09-06T11:17:32.750Z,46.11
2018-09-06T11:20:01.570Z,45.97
2018-09-06T11:22:30.461Z,45.48
2018-09-06T11:24:59.200Z,45.37
2018-09-06T11:27:28.499Z,46.08
2018-09-06T11:29:57.038Z,46.24
2018-09-06T11:32:25.967Z,44.74
2018-09-06T11:34:55.355Z,44.51
2018-09-06T11:37:24.065Z,45.19
2018-09-06T11:39:52.928Z,44.14
2018-09-06T11:42:21.596Z,43.24
2018-09-06T11:44:50.727Z,43.10
2018-09-06T11:47:19.487Z,41.95
2018-09-06T11:49:48.285Z,41.27
2018-09-06T11:52:17.094Z,40.78
2018-09-06T11:54:45.869Z,39.83
2018-09-06T11:57:15.086Z,39.40
2018-09-06T11:59:43.983Z,38.69
2018-09-06T12:02:12.693Z,37.84
2018-09-06T12:04:41.610Z,37.28
2018-09-06T12:07:10.313Z,37.46
2018-09-06T12:09:40.879Z,35.88
2018-09-06T12:12:09.631Z,35.09
2018-09-06T12:14:38.303Z,33.91
2018-09-06T12:17:07.181Z,33.39
2018-09-06T12:19:36.029Z,34.48
2018-09-06T12:22:04.829Z,33.65
2018-09-06T12:24:33.614Z,35.83
2018-09-06T12:27:02.336Z,35.90
2018-09-06T12:29:31.394Z,34.76
2018-09-06T12:32:00.482Z,33.51
2018-09-06T12:34:29.475Z,33.11
2018-09-06T12:36:58.175Z,31.75
2018-09-06T12:39:26.976Z,31.40
2018-09-06T12:41:55.793Z,31.83
2018-09-06T12:44:24.658Z,32.41
2018-09-06T12:46:53.628Z,32.60
2018-09-06T12:49:22.737Z,31.61
2018-09-06T12:51:51.478Z,31.77
2018-09-06T12:54:20.184Z,30.51
2018-09-06T12:56:48.863Z,30.30
2018-09-06T12:59:17.638Z,29.45
2018-09-06T13:01:46.412Z,29.73
2018-09-06T13:04:15.121Z,28.23
2018-09-06T13:06:43.844Z,28.41
2018-09-06T13:09:12.586Z,29.01
2018-09-06T13:11:41.317Z,29.86
2018-09-06T13:14:10.193Z,31.42
2018-09-06T13:16:39.795Z,32.97
2018-09-06T13:19:08.607Z,34.28
2018-09-06T13:21:37.282Z,33.99
2018-09-06T13:24:06.365Z,34.43
2018-09-06T13:26:35.082Z,33.63
2018-09-06T13:29:03.857Z,33.91
2018-09-06T13:31:32.693Z,34.28
2018-09-06T13:34:01.450Z,35.55
2018-09-06T13:36:30.245Z,35.83
2018-09-06T13:38:58.889Z,36.13
2018-09-06T13:41:27.685Z,37.66
2018-09-06T13:43:56.359Z,36.71
2018-09-06T13:46:25.034Z,37.42
2018-09-06T13:48:53.987Z,37.87
2018-09-06T13:51:22.898Z,38.77
2018-09-06T13:53:51.630Z,38.18
2018-09-06T13:56:20.373Z,38.62
2018-09-06T13:58:49.133Z,38.62
2018-09-06T14:01:18.030Z,38.91
2018-09-06T14:03:46.793Z,39.23
2018-09-06T14:06:15.619Z,39.24
2018-09-06T14:08:44.461Z,39.12
2018-09-06T14:11:13.144Z,39.11
2018-09-06T14:13:42.069Z,39.49
2018-09-06T14:16:10.851Z,39.19
2018-09-06T14:18:39.546Z,39.57
2018-09-06T14:21:08.313Z,39.62
2018-09-06T14:23:36.983Z,40.23
2018-09-06T14:26:05.720Z,41.20
2018-09-06T14:28:34.641Z,40.08
2018-09-06T14:31:03.490Z,40.46
2018-09-06T14:33:32.202Z,40.74
2018-09-06T14:36:00.862Z,39.19
2018-09-06T14:38:29.641Z,40.18
2018-09-06T14:40:58.430Z,40.26
2018-09-06T14:43:27.428Z,41.20
2018-09-06T14:45:56.100Z,40.80
2018-09-06T14:48:24.842Z,41.54
2018-09-06T14:50:53.592Z,39.35
2018-09-06T14:53:22.361Z,39.79
2018-09-06T14:55:51.269Z,41.06
2018-09-06T14:58:19.961Z,41.30
2018-09-06T15:00:48.848Z,41.15
2018-09-06T15:03:17.624Z,41.45
2018-09-06T15:05:46.284Z,41.44
2018-09-06T15:08:14.997Z,41.19
2018-09-06T15:10:43.732Z,41.04
2018-09-06T15:13:12.462Z,41.58
2018-09-06T15:15:41.279Z,41.42
2018-09-06T15:18:10.035Z,41.66
2018-09-06T15:20:38.802Z,42.29
2018-09-06T15:23:07.531Z,42.01
2018-09-06T15:25:36.311Z,41.38
2018-09-06T15:28:04.991Z,41.91
2018-09-06T15:30:33.762Z,42.16
2018-09-06T15:33:02.613Z,42.26
2018-09-06T15:35:31.333Z,42.32
2018-09-06T15:38:00.782Z,42.31
2018-09-06T15:40:29.730Z,42.59
2018-09-06T15:42:58.523Z,42.94
2018-09-06T15:45:27.382Z,42.97
2018-09-06T15:47:56.358Z,43.35
2018-09-06T15:50:25.114Z,43.41
2018-09-06T15:52:54.021Z,43.52
2018-09-06T15:55:22.778Z,43.70
2018-09-06T15:57:51.466Z,43.23
2018-09-06T16:00:20.391Z,43.78
2018-09-06T16:02:49.110Z,43.91
2018-09-06T16:05:17.979Z,44.01
2018-09-06T16:07:46.666Z,44.00
2018-09-06T16:10:15.419Z,44.21
2018-09-06T16:12:44.135Z,43.92
2018-09-06T16:15:13.037Z,44.22
2018-09-06T16:17:41.756Z,44.39
2018-09-06T16:20:10.465Z,44.27
2018-09-06T16:22:39.480Z,44.57
2018-09-06T16:25:08.182Z,44.27
2018-09-06T16:27:36.952Z,45.00
2018-09-06T16:30:06.244Z,44.83
2018-09-06T16:32:34.969Z,45.62
2018-09-06T16:35:03.664Z,45.85
2018-09-06T16:37:32.365Z,45.99
2018-09-06T16:40:01.149Z,46.19
2018-09-06T16:42:29.831Z,46.43
2018-09-06T16:44:58.866Z,46.58
2018-09-06T16:47:27.560Z,46.64
2018-09-06T16:49:56.215Z,47.07
2018-09-06T16:52:24.945Z,47.31
2018-09-06T16:54:53.918Z,47.48
2018-09-06T16:57:22.672Z,47.98
2018-09-06T16:59:51.453Z,48.16
2018-09-06T17:02:20.295Z,48.27
2018-09-06T17:04:49.054Z,48.51
2018-09-06T17:07:17.831Z,49.07
2018-09-06T17:09:46.627Z,49.01
2018-09-06T17:12:15.262Z,49.40
2018-09-06T17:14:43.946Z,49.73
2018-09-06T17:17:12.584Z,49.95
2018-09-06T17:19:41.345Z,50.07
2018-09-06T17:22:10.405Z,50.12
2018-09-06T17:24:39.127Z,50.54
2018-09-06T17:27:07.890Z,50.74
2018-09-06T17:29:36.575Z,51.14
2018-09-06T17:32:05.270Z,51.43
2018-09-06T17:34:33.913Z,52.76
2018-09-06T17:37:02.643Z,52.83
2018-09-06T17:39:31.388Z,52.42
2018-09-06T17:42:00.117Z,52.74
2018-09-06T17:44:28.813Z,52.74
2018-09-06T17:46:57.511Z,53.99
2018-09-06T17:49:26.250Z,54.42
2018-09-06T17:51:54.956Z,54.77
2018-09-06T17:54:23.624Z,55.13
2018-09-06T17:56:52.468Z,55.74
2018-09-06T17:59:21.222Z,56.23
2018-09-06T18:01:50.074Z,56.04
2018-09-06T18:04:18.789Z,56.18
2018-09-06T18:06:47.557Z,56.10
2018-09-06T18:11:58.308Z,56.61
2018-09-06T18:14:27.173Z,57.10
2018-09-06T18:16:56.184Z,56.90
2018-09-06T18:19:24.903Z,57.40
2018-09-06T18:21:53.633Z,57.79
2018-09-06T18:24:22.452Z,58.27
2018-09-06T18:26:51.258Z,59.23
2018-09-06T18:29:20.018Z,58.40
2018-09-06T18:31:48.807Z,58.80
2018-09-06T18:34:17.558Z,58.45
2018-09-06T18:36:46.391Z,58.82
2018-09-06T18:39:15.198Z,59.00
2018-09-06T18:41:43.941Z,59.15
2018-09-06T18:44:12.710Z,59.12
2018-09-06T18:46:41.416Z,59.67
2018-09-06T18:49:10.237Z,59.00
2018-09-06T18:51:39.028Z,59.29
2018-09-06T18:54:07.734Z,59.48
2018-09-06T18:56:36.515Z,60.41
2018-09-06T18:59:05.567Z,60.45
2018-09-06T19:01:34.586Z,60.49
2018-09-06T19:04:03.259Z,60.57
2018-09-06T19:06:31.928Z,60.37
2018-09-06T19:09:00.738Z,61.05
2018-09-06T19:11:29.369Z,61.44
2018-09-06T19:13:58.234Z,61.85
2018-09-06T19:16:26.950Z,62.17
2018-09-06T19:18:55.875Z,61.86
2018-09-06T19:21:24.579Z,61.25
2018-09-06T19:23:53.561Z,61.86
2018-09-06T19:26:22.556Z,61.84
2018-09-06T19:28:51.196Z,61.82
2018-09-06T19:31:19.938Z,61.92
2018-09-06T19:33:48.737Z,62.32
2018-09-06T19:36:17.507Z,63.87
2018-09-06T19:38:46.326Z,63.96
2018-09-06T19:41:15.043Z,64.01
2018-09-06T19:43:43.715Z,63.71
2018-09-06T19:46:12.433Z,63.19
2018-09-06T19:48:41.252Z,63.28
2018-09-06T19:51:10.262Z,63.39
2018-09-06T19:53:39.118Z,64.26
2018-09-06T19:56:07.900Z,65.09
2018-09-06T19:58:36.621Z,63.25
2018-09-06T20:01:05.390Z,62.01
2018-09-06T20:03:35.139Z,60.41
2018-09-06T20:06:03.907Z,59.83
2018-09-06T20:08:32.693Z,58.50
2018-09-06T20:11:01.590Z,57.71
2018-09-06T20:13:30.264Z,57.95
2018-09-06T20:15:59.695Z,58.09
2018-09-06T20:18:28.551Z,58.38
2018-09-06T20:20:57.261Z,58.56
2018-09-06T20:23:26.086Z,59.34
2018-09-06T20:25:54.996Z,59.52
2018-09-06T20:28:23.898Z,60.48
2018-09-06T20:30:52.625Z,60.63
2018-09-06T20:33:21.379Z,61.43
2018-09-06T20:35:50.315Z,62.17
2018-09-06T20:38:19.003Z,63.26
2018-09-06T20:40:47.895Z,65.08
2018-09-06T20:43:16.667Z,65.42
2018-09-06T20:45:45.571Z,64.76
2018-09-06T20:48:15.318Z,65.48
2018-09-06T20:50:44.028Z,66.46
2018-09-06T20:53:13.125Z,67.70
2018-09-06T20:55:41.822Z,67.40
2018-09-06T20:58:10.525Z,67.53
2018-09-06T21:00:39.337Z,69.21
2018-09-06T21:03:08.149Z,68.73
2018-09-06T21:05:36.880Z,68.87
2018-09-06T21:08:05.590Z,70.04
2018-09-06T21:10:34.365Z,69.44
2018-09-06T21:13:03.165Z,68.54
2018-09-06T21:15:32.077Z,69.95
2018-09-06T21:18:00.984Z,69.85
2018-09-06T21:20:29.714Z,69.37
2018-09-06T21:22:58.743Z,69.98
2018-09-06T21:25:27.454Z,70.27
2018-09-06T21:27:56.542Z,69.71
2018-09-06T21:30:25.321Z,69.86
2018-09-06T21:32:54.024Z,70.49
2018-09-06T21:35:22.754Z,70.65
2018-09-06T21:37:51.600Z,70.73
2018-09-06T21:40:20.397Z,70.73
2018-09-06T21:42:49.329Z,71.24
2018-09-06T21:45:18.246Z,70.59
2018-09-06T21:47:47.103Z,71.51
2018-09-06T21:50:16.130Z,72.04
2018-09-06T21:52:44.867Z,72.24
2018-09-06T21:55:13.574Z,74.06
2018-09-06T21:57:42.355Z,74.66
2018-09-06T22:00:11.417Z,75.54
2018-09-06T22:02:45.724Z,76.65
2018-09-06T22:05:14.473Z,77.02
2018-09-06T22:07:43.224Z,76.75
2018-09-06T22:10:12.792Z,77.75
2018-09-06T22:12:41.655Z,78.26
2018-09-06T22:15:10.468Z,77.62
2018-09-06T22:17:39.234Z,77.18
2018-09-06T22:20:07.985Z,76.42
2018-09-06T22:22:36.714Z,77.74
2018-09-06T22:25:05.607Z,77.16
2018-09-06T22:27:34.313Z,76.88
2018-09-06T22:30:03.299Z,76.76
2018-09-06T22:32:32.186Z,77.24
2018-09-06T22:35:00.962Z,79.35
2018-09-06T22:37:29.738Z,78.85
2018-09-06T22:39:58.557Z,79.05
2018-09-06T22:42:27.229Z,80.65
2018-09-06T22:44:55.884Z,81.71
2018-09-06T22:47:24.731Z,81.13
2018-09-06T22:49:53.502Z,80.86
2018-09-06T22:52:22.488Z,80.94
2018-09-06T22:54:51.146Z,82.36
2018-09-06T22:57:19.954Z,83.06
2018-09-06T22:59:48.666Z,83.95
2018-09-06T23:02:17.776Z,84.09
2018-09-06T23:04:46.634Z,84.10
2018-09-06T23:07:15.475Z,84.42
2018-09-06T23:09:44.202Z,83.43
2018-09-06T23:12:13.028Z,83.15
2018-09-06T23:14:41.730Z,84.60
2018-09-06T23:17:10.464Z,84.43
2018-09-06T23:19:39.289Z,84.69
2018-09-06T23:22:08.043Z,84.08
2018-09-06T23:24:37.075Z,84.00
2018-09-06T23:27:05.918Z,84.72
2018-09-06T23:29:34.616Z,83.86
2018-09-06T23:32:03.847Z,85.11
2018-09-06T23:34:35.677Z,85.57
2018-09-06T23:37:05.642Z,85.83
2018-09-06T23:39:35.001Z,85.70
2018-09-06T23:42:04.035Z,85.34
2018-09-06T23:44:32.783Z,85.78
2018-09-06T23:47:01.736Z,85.72
2018-09-06T23:49:31.160Z,86.03
2018-09-06T23:52:00.324Z,85.59
2018-09-06T23:54:30.122Z,85.80
2018-09-06T23:56:58.809Z,85.75
2018-09-06T23:59:27.584Z,85.52
